^^
Saratoga-Weather Station Historical Data
Daily Summary for May 29, 2021 Units:  Metric    English   Both
Daily Weekly Monthly Yearly Custom
  High: Low: Average:
Temperature: 10.4 °C 9.9 °C 10.1 °C
Dew Point: 9.8 °C 9.1 °C 9.3 °C
Humidity: 96% 95% 95%
Wind Speed: 9.7km/h 0km/h 2.5km/h
Wind Gust: 12.9km/h - -
Wind- - WNW
Pressure: 1003.4 hPa 1001.4 hPa -
Precipitation: 1.5 mm    
Historical Graphs
 
 
Tabular Data for May 29, 2021
Time Temperature Dew Point Pressure Wind Wind Speed Wind Gust Humidity Rainfall Rate (Hourly) solar
00:03 9.9 °C 9.1 °C 1003.4 hPa NNW 3.2 km/h 6.4 km/h 95% 1.3 mm 0 W/m2
00:08 9.9 °C 9.1 °C 1003.4 hPa West 4.7 km/h 12.9 km/h 95% 1.3 mm 0 W/m2
00:13 9.9 °C 9.1 °C 1003.4 hPa North 3.2 km/h 3.2 km/h 95% 1.0 mm 0 W/m2
00:18 9.9 °C 9.1 °C 1003.4 hPa Calm   11.3 km/h 95% 0.8 mm 0 W/m2
00:23 9.9 °C 9.1 °C 1003.0 hPa West 3.2 km/h 3.2 km/h 95% 0.8 mm 0 W/m2
00:28 9.9 °C 9.1 °C 1003.0 hPa Calm   3.2 km/h 95% 0.5 mm 0 W/m2
00:33 10 °C 9.2 °C 1003.0 hPa Calm   6.4 km/h 95% 0.5 mm 0 W/m2
00:38 10 °C 9.2 °C 1003.0 hPa NW 1.4 km/h 6.4 km/h 95% 0.5 mm 0 W/m2
00:43 10 °C 9.2 °C 1003.0 hPa Calm   4.8 km/h 95% 0.5 mm 0 W/m2
00:48 10 °C 9.2 °C 1002.7 hPa NNW 3.2 km/h 6.4 km/h 95% 0.5 mm 0 W/m2
00:53 10 °C 9.2 °C 1002.7 hPa Calm     95% 0.5 mm 0 W/m2
00:58 10.1 °C 9.3 °C 1002.4 hPa North 1.4 km/h 6.4 km/h 95% 0.2 mm 0 W/m2
01:03 10.1 °C 9.3 °C 1002.4 hPa West 3.2 km/h 3.2 km/h 95% 0.5 mm 0 W/m2
01:08 10.1 °C 9.3 °C 1002.0 hPa WNW 4.7 km/h 4.8 km/h 95% 0.8 mm 0 W/m2
01:13 10.1 °C 9.5 °C 1002.0 hPa North 1.4 km/h 3.2 km/h 96% 1.3 mm 0 W/m2
01:18 10.1 °C 9.5 °C 1002.0 hPa NW 1.4 km/h 4.8 km/h 96% 1.3 mm 0 W/m2
01:23 10.2 °C 9.6 °C 1001.7 hPa WSW 4.7 km/h 9.7 km/h 96% 1.5 mm 0 W/m2
01:28 10.2 °C 9.6 °C 1001.7 hPa WNW 9.7 km/h 11.3 km/h 96% 1.5 mm 0 W/m2
01:33 10.3 °C 9.7 °C 1001.7 hPa NNW 1.4 km/h 3.2 km/h 96% 1.5 mm 0 W/m2
01:38 10.3 °C 9.7 °C 1001.4 hPa WNW 3.2 km/h 12.9 km/h 96% 1.5 mm 0 W/m2
01:43 10.4 °C 9.8 °C 1001.4 hPa SW 3.2 km/h 6.4 km/h 96% 1.5 mm 0 W/m2
Juneau County Weather
Compliments of Weather Underground - 2 mb